Time;durP1;ratioP1;P1;durP2;ratioP2;P2;SDS_P1;SDS_P2;PMS_P1;PMS_P2;Temp;Humidity;BMP_temperature;BMP_pressure;BME280_temperature;BME280_humidity;BME280_pressure;Samples;Min_cycle;Max_cycle;Signal;HPM_P1;HPM_P2
2022/10/02 00:02:16;;;;;;;14.00;3.30;;;16.20;99.90;;;;;;4993316;28;20589;-83
2022/10/02 00:04:52;;;;;;;10.63;3.17;;;16.10;99.90;;;;;;4995007;28;20188;-83
2022/10/02 00:07:23;;;;;;;7.63;1.90;;;16.10;99.90;;;;;;4994757;28;20215;-82
2022/10/02 00:09:53;;;;;;;12.13;2.05;;;16.00;99.90;;;;;;4994883;28;20227;-80
2022/10/02 00:12:22;;;;;;;9.98;2.67;;;16.10;99.90;;;;;;4994758;28;20270;-82
2022/10/02 00:14:53;;;;;;;12.55;2.72;;;16.10;99.90;;;;;;4994558;28;20208;-80
2022/10/02 00:17:23;;;;;;;7.80;2.50;;;16.00;99.90;;;;;;5013696;28;20847;-82
2022/10/02 00:19:55;;;;;;;14.77;2.88;;;16.00;99.90;;;;;;5014461;28;20974;-82
2022/10/02 00:22:34;;;;;;;8.82;2.80;;;16.00;99.90;;;;;;5014125;28;20203;-83
2022/10/02 00:25:07;;;;;;;12.50;2.50;;;16.00;99.90;;;;;;5012809;28;20215;-78
2022/10/02 00:27:46;;;;;;;10.82;2.78;;;16.00;99.90;;;;;;5014229;28;20198;-83
2022/10/02 00:30:16;;;;;;;18.75;3.00;;;16.10;99.90;;;;;;4999670;28;20234;-82
2022/10/02 00:32:56;;;;;;;15.10;3.50;;;16.20;99.90;;;;;;4994348;28;20294;-83
2022/10/02 00:36:03;;;;;;;14.30;2.72;;;16.30;99.90;;;;;;4994230;28;20201;-80
2022/10/02 00:38:38;;;;;;;25.27;4.55;;;16.40;99.90;;;;;;4993272;28;20206;-79
2022/10/02 00:41:30;;;;;;;17.70;3.58;;;16.40;99.90;;;;;;4993846;28;20199;-80
2022/10/02 00:44:15;;;;;;;16.05;3.30;;;16.40;99.90;;;;;;4984125;28;20203;-81
2022/10/02 00:46:49;;;;;;;13.38;2.90;;;16.40;99.90;;;;;;4994405;28;20278;-80
2022/10/02 00:49:38;;;;;;;22.00;2.92;;;16.40;99.90;;;;;;4997453;28;20219;-82
2022/10/02 00:52:18;;;;;;;12.05;3.00;;;16.30;99.90;;;;;;5012411;28;20191;-81
2022/10/02 00:55:18;;;;;;;12.60;3.15;;;16.30;99.90;;;;;;5013449;28;20205;-82
2022/10/02 00:58:01;;;;;;;9.15;2.85;;;16.30;99.90;;;;;;4994276;28;20312;-81
2022/10/02 01:00:28;;;;;;;10.73;3.08;;;16.20;99.90;;;;;;4993718;28;20191;-82
2022/10/02 01:03:17;;;;;;;12.27;2.78;;;16.10;99.90;;;;;;4997629;23;20228;-82
2022/10/02 01:05:44;;;;;;;11.20;2.30;;;16.10;99.90;;;;;;4974052;28;20610;-82
2022/10/02 01:08:13;;;;;;;14.55;4.38;;;16.10;99.90;;;;;;4974453;28;20934;-80
2022/10/02 01:10:40;;;;;;;16.92;3.53;;;16.10;99.90;;;;;;4974318;28;20201;-81
2022/10/02 01:13:07;;;;;;;13.93;4.00;;;16.10;99.90;;;;;;4973532;28;20211;-84
2022/10/02 01:15:38;;;;;;;15.48;3.70;;;16.20;99.90;;;;;;4974411;28;20204;-81
2022/10/02 01:18:06;;;;;;;14.85;3.70;;;16.20;99.90;;;;;;4974290;28;20232;-83
2022/10/02 01:20:37;;;;;;;15.43;3.47;;;16.20;99.90;;;;;;4989400;28;20200;-83
2022/10/02 01:23:30;;;;;;;16.45;3.55;;;16.10;99.90;;;;;;4993546;28;20592;-81
2022/10/02 01:25:59;;;;;;;13.70;3.35;;;16.00;99.90;;;;;;4971876;28;20209;-81
2022/10/02 01:28:26;;;;;;;11.60;3.33;;;16.10;99.90;;;;;;4972854;28;20231;-81
2022/10/02 01:30:58;;;;;;;16.65;3.40;;;16.10;99.90;;;;;;4973358;28;20589;-81
2022/10/02 01:33:25;;;;;;;13.30;2.80;;;16.00;99.90;;;;;;4973293;28;20199;-79
2022/10/02 01:35:52;;;;;;;12.13;2.72;;;16.00;99.90;;;;;;4973513;28;20523;-82
2022/10/02 01:38:22;;;;;;;13.88;2.95;;;16.00;99.90;;;;;;4973246;28;20217;-82
2022/10/02 01:40:49;;;;;;;14.30;3.38;;;16.00;99.90;;;;;;4972906;28;20207;-82
2022/10/02 01:43:20;;;;;;;17.02;3.40;;;16.00;99.90;;;;;;4973562;28;20211;-82
2022/10/02 01:45:56;;;;;;;11.90;3.17;;;15.90;99.90;;;;;;4973305;28;20565;-82
2022/10/02 01:48:34;;;;;;;18.38;3.45;;;15.90;99.90;;;;;;5006081;28;20206;-81
2022/10/02 01:51:20;;;;;;;8.77;2.93;;;15.90;99.90;;;;;;5013069;28;20273;-82
2022/10/02 01:53:54;;;;;;;18.55;3.88;;;15.80;99.90;;;;;;5002186;28;20251;-83
2022/10/02 01:56:29;;;;;;;10.18;3.28;;;15.80;99.90;;;;;;4973620;28;20192;-82
2022/10/02 01:59:04;;;;;;;10.32;2.92;;;15.70;99.90;;;;;;4973512;28;20620;-81
2022/10/02 02:01:41;;;;;;;13.82;3.70;;;15.80;99.90;;;;;;4973739;28;20188;-82
2022/10/02 02:04:23;;;;;;;12.73;3.00;;;15.80;99.90;;;;;;4973504;28;20235;-82
2022/10/02 02:06:57;;;;;;;12.18;2.70;;;15.80;99.90;;;;;;4960054;28;20196;-82
2022/10/02 02:09:31;;;;;;;12.27;3.22;;;15.80;99.90;;;;;;4973469;28;20724;-82
2022/10/02 02:12:07;;;;;;;13.65;3.30;;;15.80;99.90;;;;;;4984692;28;20211;-83
2022/10/02 02:14:42;;;;;;;15.85;3.20;;;15.80;99.90;;;;;;4984184;28;20208;-81
2022/10/02 02:17:14;;;;;;;11.63;3.05;;;15.80;99.90;;;;;;4973364;28;20206;-82
2022/10/02 02:19:46;;;;;;;14.02;3.33;;;15.80;99.90;;;;;;4974086;28;20279;-80
2022/10/02 02:22:19;;;;;;;16.02;2.80;;;15.70;99.90;;;;;;4973692;28;20756;-83
2022/10/02 02:24:52;;;;;;;13.45;2.88;;;15.70;99.90;;;;;;4974463;28;20211;-84
2022/10/02 02:27:24;;;;;;;17.02;3.00;;;15.70;99.90;;;;;;4977491;28;20952;-83
2022/10/02 02:29:58;;;;;;;13.52;2.80;;;15.70;99.90;;;;;;4976501;28;20212;-83
2022/10/02 02:32:30;;;;;;;13.88;2.90;;;15.60;99.90;;;;;;4977519;28;20284;-83
2022/10/02 02:35:02;;;;;;;12.52;2.75;;;15.60;99.90;;;;;;4982572;28;20196;-82
2022/10/02 02:37:33;;;;;;;13.88;3.00;;;15.60;99.90;;;;;;4996039;28;20189;-83
2022/10/02 02:40:05;;;;;;;11.38;2.58;;;15.60;99.90;;;;;;5004017;23;20240;-82
2022/10/02 02:42:37;;;;;;;10.23;2.60;;;15.60;99.90;;;;;;4996104;28;20207;-81
2022/10/02 02:45:12;;;;;;;11.63;2.78;;;15.60;99.90;;;;;;4976895;28;20292;-85
2022/10/02 02:47:46;;;;;;;9.95;2.38;;;15.60;99.90;;;;;;4977060;28;20208;-83
2022/10/02 02:50:18;;;;;;;9.68;2.22;;;15.60;99.90;;;;;;4977233;28;20512;-82
2022/10/02 02:52:50;;;;;;;13.38;3.20;;;15.50;99.90;;;;;;4993050;28;20212;-81
2022/10/02 02:55:22;;;;;;;12.57;2.53;;;15.50;99.90;;;;;;4995924;28;20195;-82
2022/10/02 02:57:53;;;;;;;13.80;2.70;;;15.50;99.90;;;;;;4994964;28;20228;-81
2022/10/02 03:00:23;;;;;;;16.20;2.65;;;15.50;99.90;;;;;;4995804;28;20196;-80
2022/10/02 03:02:53;;;;;;;14.43;3.25;;;15.50;99.90;;;;;;4995891;28;20294;-82
2022/10/02 03:05:21;;;;;;;16.77;2.30;;;15.40;99.90;;;;;;4993976;28;20205;-81
2022/10/02 03:07:52;;;;;;;11.88;2.55;;;15.40;99.90;;;;;;4995976;28;20223;-81
2022/10/02 03:10:27;;;;;;;8.38;2.50;;;15.40;99.90;;;;;;4995603;28;20218;-81
2022/10/02 03:13:04;;;;;;;13.10;2.47;;;15.40;99.90;;;;;;4988167;28;20204;-82
2022/10/02 03:15:44;;;;;;;8.15;2.30;;;15.40;99.90;;;;;;4976344;28;20200;-82
2022/10/02 03:18:33;;;;;;;13.13;3.38;;;15.40;99.90;;;;;;4975997;28;20193;-81
2022/10/02 03:21:09;;;;;;;13.13;2.50;;;15.40;99.90;;;;;;4975603;28;20574;-81
2022/10/02 03:23:47;;;;;;;15.57;3.50;;;15.40;99.90;;;;;;4976484;28;20189;-82
2022/10/02 03:26:19;;;;;;;11.50;2.72;;;15.40;99.90;;;;;;4975403;28;20231;-80
2022/10/02 03:28:51;;;;;;;13.35;3.10;;;15.40;99.90;;;;;;4976241;28;20197;-81
2022/10/02 03:31:21;;;;;;;15.82;3.08;;;15.50;99.90;;;;;;4983648;28;20620;-80
2022/10/02 03:33:49;;;;;;;12.27;2.53;;;15.50;99.90;;;;;;4994964;28;20214;-80
2022/10/02 03:36:19;;;;;;;11.38;2.47;;;15.50;99.90;;;;;;4992729;28;20290;-81
2022/10/02 03:38:47;;;;;;;14.23;3.17;;;15.50;99.90;;;;;;4975829;28;20193;-82
2022/10/02 03:41:14;;;;;;;10.63;2.67;;;15.50;99.90;;;;;;4990758;28;20243;-81
2022/10/02 03:43:41;;;;;;;12.32;2.70;;;15.60;99.90;;;;;;4995087;28;20204;-82
2022/10/02 03:46:07;;;;;;;11.23;2.65;;;15.60;99.90;;;;;;4995281;28;20608;-83
2022/10/02 03:48:36;;;;;;;13.70;2.80;;;15.70;99.90;;;;;;4994234;28;20215;-81
2022/10/02 03:51:02;;;;;;;15.63;3.60;;;15.70;99.90;;;;;;4994605;28;20227;-80
2022/10/02 03:53:33;;;;;;;10.30;2.75;;;15.70;99.90;;;;;;4994663;28;20212;-80
2022/10/02 03:56:05;;;;;;;12.05;2.55;;;15.70;99.90;;;;;;4994776;28;20231;-80
2022/10/02 03:58:33;;;;;;;14.23;2.60;;;15.70;99.90;;;;;;4994809;28;20212;-81
2022/10/02 04:01:05;;;;;;;11.43;2.83;;;15.70;99.90;;;;;;4994897;28;20215;-80
2022/10/02 04:03:38;;;;;;;12.27;2.97;;;15.70;99.90;;;;;;4994943;28;20192;-83
2022/10/02 04:06:11;;;;;;;15.85;3.28;;;15.60;99.90;;;;;;4994722;28;20204;-81
2022/10/02 04:08:45;;;;;;;15.27;3.25;;;15.60;99.90;;;;;;4994570;28;20675;-82
2022/10/02 04:11:16;;;;;;;14.32;2.72;;;15.70;99.90;;;;;;4994733;28;20204;-80
2022/10/02 04:13:48;;;;;;;15.70;3.33;;;15.70;99.90;;;;;;4994687;28;20208;-82
2022/10/02 04:16:20;;;;;;;16.90;2.97;;;15.70;99.90;;;;;;4993809;28;20218;-83
2022/10/02 04:18:54;;;;;;;13.88;3.42;;;15.70;99.90;;;;;;4994367;28;20218;-82
2022/10/02 04:21:33;;;;;;;16.10;3.63;;;15.70;99.90;;;;;;4994854;28;20194;-83
2022/10/02 04:24:09;;;;;;;17.63;3.37;;;15.70;99.90;;;;;;4993530;28;20208;-81
2022/10/02 04:26:39;;;;;;;14.80;3.60;;;15.70;99.90;;;;;;4994296;28;20188;-82
2022/10/02 04:29:15;;;;;;;16.67;2.95;;;15.70;99.90;;;;;;4994108;28;20204;-80
2022/10/02 04:31:43;;;;;;;14.77;3.05;;;15.70;99.90;;;;;;4993837;28;20203;-81
2022/10/02 04:34:13;;;;;;;15.25;3.10;;;15.60;99.90;;;;;;4994284;28;20199;-82
2022/10/02 04:36:48;;;;;;;16.25;3.00;;;15.60;99.90;;;;;;4993630;28;20191;-82
2022/10/02 04:39:29;;;;;;;16.02;4.20;;;15.70;99.90;;;;;;4994321;28;20510;-81
2022/10/02 04:42:14;;;;;;;11.98;2.92;;;15.70;99.90;;;;;;4994675;28;20192;-83
2022/10/02 04:44:55;;;;;;;16.52;3.25;;;15.60;99.90;;;;;;4993504;28;20270;-81
2022/10/02 04:47:48;;;;;;;11.07;2.67;;;15.60;99.90;;;;;;4993600;28;20212;-80
2022/10/02 04:50:37;;;;;;;12.13;2.95;;;15.60;99.90;;;;;;4994367;28;20232;-80
2022/10/02 04:53:22;;;;;;;12.07;2.90;;;15.50;99.90;;;;;;4993155;28;20584;-81
2022/10/02 04:56:10;;;;;;;13.02;2.53;;;15.50;99.90;;;;;;4993671;28;20192;-81
2022/10/02 04:58:58;;;;;;;13.43;2.90;;;15.50;99.90;;;;;;4992991;28;20231;-80
2022/10/02 05:01:37;;;;;;;12.57;2.80;;;15.50;99.90;;;;;;4983172;28;20198;-81
2022/10/02 05:04:30;;;;;;;18.35;3.15;;;15.50;99.90;;;;;;4993590;28;20642;-82
2022/10/02 05:07:15;;;;;;;14.85;3.45;;;15.50;99.90;;;;;;4993751;28;20211;-81
2022/10/02 05:09:53;;;;;;;12.98;3.20;;;15.50;99.90;;;;;;4993492;28;20264;-82
2022/10/02 05:12:38;;;;;;;18.20;3.33;;;15.50;99.90;;;;;;4993091;28;20258;-82
2022/10/02 05:15:21;;;;;;;11.32;2.60;;;15.50;99.90;;;;;;4993645;28;20195;-82
2022/10/02 05:18:01;;;;;;;10.60;2.78;;;15.50;99.90;;;;;;4993571;28;20192;-81
2022/10/02 05:20:59;;;;;;;9.88;2.50;;;15.50;99.90;;;;;;4992975;28;20188;-80
2022/10/02 05:23:50;;;;;;;11.90;3.13;;;15.40;99.90;;;;;;4993260;28;20204;-80
2022/10/02 05:26:41;;;;;;;12.85;3.15;;;15.40;99.90;;;;;;4992466;28;20299;-82
2022/10/02 05:29:31;;;;;;;14.20;3.35;;;15.40;99.90;;;;;;4993188;28;20192;-82
2022/10/02 05:32:14;;;;;;;10.07;2.83;;;15.30;99.90;;;;;;4993443;28;20287;-82
2022/10/02 05:35:02;;;;;;;11.60;3.28;;;15.30;99.90;;;;;;4992330;28;20202;-81
2022/10/02 05:37:47;;;;;;;14.98;2.95;;;15.30;99.90;;;;;;5006394;28;20227;-83
2022/10/02 05:40:24;;;;;;;15.55;3.58;;;15.30;99.90;;;;;;5012065;28;20235;-80
2022/10/02 05:43:01;;;;;;;11.73;3.13;;;15.30;99.90;;;;;;5012873;28;20616;-81
2022/10/02 05:45:34;;;;;;;10.70;2.63;;;15.20;99.90;;;;;;5009475;28;20600;-80
2022/10/02 05:48:07;;;;;;;13.88;3.10;;;15.30;99.90;;;;;;4992590;28;20206;-82
2022/10/02 05:50:36;;;;;;;14.40;3.10;;;15.20;99.90;;;;;;4993111;28;20227;-79
2022/10/02 05:53:07;;;;;;;14.60;3.50;;;15.20;99.90;;;;;;4993030;28;20639;-81
2022/10/02 05:55:40;;;;;;;11.27;2.50;;;15.20;99.90;;;;;;4992265;28;20208;-81
2022/10/02 05:58:15;;;;;;;11.00;2.70;;;15.20;99.90;;;;;;4993298;28;20505;-79
2022/10/02 06:00:48;;;;;;;11.63;2.83;;;15.30;99.90;;;;;;4994975;28;20205;-79
2022/10/02 06:03:21;;;;;;;10.57;2.43;;;15.30;99.90;;;;;;4996036;28;20199;-80
2022/10/02 06:05:54;;;;;;;15.60;3.53;;;15.20;99.90;;;;;;4996732;28;20291;-81
2022/10/02 06:08:28;;;;;;;16.23;4.05;;;15.20;99.90;;;;;;4995885;28;20192;-80
2022/10/02 06:11:02;;;;;;;12.80;2.50;;;15.30;99.90;;;;;;4996936;28;20484;-81
2022/10/02 06:13:35;;;;;;;12.45;2.97;;;15.30;99.90;;;;;;4994691;28;20211;-81
2022/10/02 06:16:10;;;;;;;11.20;2.63;;;15.30;99.90;;;;;;4994223;28;20287;-83
2022/10/02 06:18:38;;;;;;;15.88;3.15;;;15.30;99.90;;;;;;5003707;28;20488;-80
2022/10/02 06:21:10;;;;;;;12.75;2.78;;;15.30;99.90;;;;;;5014270;28;20222;-81
2022/10/02 06:23:42;;;;;;;12.15;2.60;;;15.30;99.90;;;;;;5003931;28;20287;-79
2022/10/02 06:26:16;;;;;;;14.57;3.15;;;15.30;99.90;;;;;;4996674;28;20192;-80
2022/10/02 06:28:48;;;;;;;16.38;4.65;;;15.30;99.90;;;;;;4996058;28;20597;-84
2022/10/02 06:31:21;;;;;;;13.75;2.92;;;15.30;99.90;;;;;;4996627;28;20208;-81
2022/10/02 06:33:48;;;;;;;11.70;3.63;;;15.30;99.90;;;;;;4996263;28;20660;-81
2022/10/02 06:36:38;;;;;;;10.75;3.10;;;15.30;99.90;;;;;;4995865;28;20202;-80
2022/10/02 06:39:19;;;;;;;14.45;3.50;;;15.30;99.90;;;;;;4996195;28;20203;-81
2022/10/02 06:41:59;;;;;;;15.45;3.47;;;15.40;99.90;;;;;;4995890;28;20200;-80
2022/10/02 06:44:35;;;;;;;13.82;2.88;;;15.50;99.90;;;;;;4995312;28;20496;-80
2022/10/02 06:47:19;;;;;;;13.35;3.50;;;15.50;99.90;;;;;;4995085;28;20192;-78
2022/10/02 06:50:02;;;;;;;16.35;3.30;;;15.60;99.90;;;;;;4995274;28;20215;-79
2022/10/02 06:52:38;;;;;;;15.10;3.30;;;15.60;99.90;;;;;;4995922;28;20206;-80
2022/10/02 06:55:23;;;;;;;14.95;3.15;;;15.60;99.90;;;;;;4994982;28;20203;-81
2022/10/02 06:58:08;;;;;;;21.15;3.50;;;15.60;99.90;;;;;;5018311;28;20318;-79
2022/10/02 07:00:47;;;;;;;14.43;3.15;;;15.70;99.90;;;;;;5018516;28;20214;-80
2022/10/02 07:03:36;;;;;;;16.02;3.05;;;15.80;99.90;;;;;;5020490;28;20212;-79
2022/10/02 07:06:16;;;;;;;17.20;3.10;;;15.80;99.90;;;;;;5026090;28;20587;-81
2022/10/02 07:09:12;;;;;;;17.55;3.63;;;15.80;99.90;;;;;;5025217;28;20535;-80
2022/10/02 07:11:51;;;;;;;10.05;2.47;;;15.80;99.90;;;;;;5024672;28;20219;-78
2022/10/02 07:14:33;;;;;;;11.95;2.50;;;15.80;99.90;;;;;;5029906;28;20202;-81
2022/10/02 07:17:25;;;;;;;14.25;2.72;;;15.80;99.90;;;;;;5016450;28;20202;-82
2022/10/02 07:20:20;;;;;;;15.57;3.20;;;15.80;99.90;;;;;;5013523;28;20199;-80
2022/10/02 07:23:26;;;;;;;14.30;2.17;;;15.90;99.90;;;;;;5015232;28;20270;-80
2022/10/02 07:26:12;;;;;;;13.70;2.92;;;15.90;99.90;;;;;;5007972;28;20655;-82
2022/10/02 07:28:44;;;;;;;10.80;3.00;;;16.00;99.90;;;;;;4995235;28;20202;-82
2022/10/02 07:31:21;;;;;;;10.50;2.50;;;16.00;99.90;;;;;;4995046;28;20318;-82
2022/10/02 07:34:02;;;;;;;11.00;2.70;;;16.00;99.90;;;;;;4995321;28;20196;-83
2022/10/02 07:36:43;;;;;;;10.30;2.92;;;16.00;99.90;;;;;;4994726;28;20644;-83
2022/10/02 07:39:20;;;;;;;10.55;2.60;;;16.00;99.90;;;;;;5002126;28;20195;-78
2022/10/02 07:42:19;;;;;;;7.97;2.45;;;16.00;99.90;;;;;;5012010;28;20194;-80
2022/10/02 07:45:06;;;;;;;12.43;2.60;;;16.00;99.90;;;;;;4984700;28;20199;-80
2022/10/02 07:47:48;;;;;;;13.00;3.63;;;16.00;99.90;;;;;;4994472;28;20224;-81
2022/10/02 07:50:22;;;;;;;12.73;3.00;;;16.00;99.90;;;;;;5013660;28;20207;-79
2022/10/02 07:52:58;;;;;;;17.25;3.40;;;16.00;99.90;;;;;;5010436;28;20199;-82
2022/10/02 07:55:26;;;;;;;16.90;2.88;;;16.00;99.90;;;;;;4987135;28;20202;-79
2022/10/02 07:58:02;;;;;;;11.20;2.90;;;16.00;99.90;;;;;;4995016;28;20542;-81
2022/10/02 08:00:33;;;;;;;9.23;2.38;;;16.00;99.90;;;;;;4994140;28;20194;-82
2022/10/02 08:03:06;;;;;;;10.52;2.38;;;16.00;99.90;;;;;;5013314;23;20242;-82
2022/10/02 08:05:36;;;;;;;11.20;3.45;;;16.00;99.90;;;;;;5033741;28;20191;-78
2022/10/02 08:08:08;;;;;;;11.50;2.60;;;16.00;99.90;;;;;;5032467;28;20234;-78
2022/10/02 08:10:40;;;;;;;10.50;2.55;;;16.00;99.90;;;;;;5033527;28;20193;-78
2022/10/02 08:13:14;;;;;;;10.55;2.83;;;16.10;99.90;;;;;;5023025;28;20302;-81
2022/10/02 08:15:44;;;;;;;10.57;3.10;;;16.10;99.90;;;;;;5013189;28;20289;-80
2022/10/02 08:18:21;;;;;;;8.45;2.60;;;16.20;99.90;;;;;;5013999;28;20620;-81
2022/10/02 08:20:49;;;;;;;11.25;2.78;;;16.20;99.90;;;;;;5014059;28;20188;-80
2022/10/02 08:23:23;;;;;;;11.20;2.75;;;16.30;99.90;;;;;;5016323;28;20643;-79
2022/10/02 08:25:57;;;;;;;11.05;2.92;;;16.30;99.90;;;;;;5014777;28;20218;-80
2022/10/02 08:28:29;;;;;;;12.10;3.00;;;16.30;99.90;;;;;;5013274;28;20203;-79
2022/10/02 08:30:57;;;;;;;12.00;2.95;;;16.30;99.90;;;;;;5014606;28;20310;-81
2022/10/02 08:33:25;;;;;;;13.95;2.67;;;16.30;99.90;;;;;;5015340;28;20207;-81
2022/10/02 08:36:33;;;;;;;10.70;3.03;;;16.40;99.90;;;;;;5013106;28;20543;-81
2022/10/02 08:39:14;;;;;;;16.67;3.20;;;16.40;99.90;;;;;;4952531;29;20621;-80
2022/10/02 08:42:17;;;;;;;9.43;2.30;;;16.60;99.90;;;;;;5004748;28;20202;-80
2022/10/02 08:45:15;;;;;;;15.73;2.67;;;16.60;99.90;;;;;;5010627;28;20199;-81
2022/10/02 08:48:07;;;;;;;11.68;2.78;;;16.60;98.40;;;;;;5002893;28;20199;-82
2022/10/02 08:51:19;;;;;;;12.25;2.30;;;16.60;94.40;;;;;;5015721;28;20210;-81
2022/10/02 08:54:15;;;;;;;11.35;2.70;;;16.60;96.10;;;;;;5031792;28;20249;-80
2022/10/02 08:57:10;;;;;;;12.13;2.97;;;16.50;99.90;;;;;;5031270;28;20214;-78
2022/10/02 09:00:06;;;;;;;12.02;3.05;;;16.60;99.60;;;;;;4996835;28;20210;-81
2022/10/02 09:03:24;;;;;;;11.93;2.33;;;16.60;82.40;;;;;;5021518;28;20206;-81
2022/10/02 09:06:27;;;;;;;12.10;2.30;;;16.60;90.20;;;;;;5025748;28;20203;-81
2022/10/02 09:09:45;;;;;;;12.95;2.72;;;16.70;58.10;;;;;;5012621;28;20226;-79
2022/10/02 09:12:52;;;;;;;10.05;2.72;;;16.70;81.60;;;;;;5016348;28;20732;-79
2022/10/02 09:15:30;;;;;;;8.10;2.38;;;16.70;60.20;;;;;;5018758;28;20599;-80
2022/10/02 09:18:15;;;;;;;7.80;2.60;;;16.80;15.30;;;;;;5026745;28;20208;-82
2022/10/02 09:21:17;;;;;;;19.02;3.25;;;16.80;28.40;;;;;;5018289;28;20549;-81
2022/10/02 09:24:17;;;;;;;8.85;2.30;;;16.90;19.90;;;;;;5012069;28;20206;-85
2022/10/02 09:27:14;;;;;;;11.07;2.75;;;16.90;18.80;;;;;;5022975;28;20638;-82
2022/10/02 09:30:23;;;;;;;13.40;2.53;;;17.00;30.20;;;;;;4985709;28;20202;-81
2022/10/02 09:33:22;;;;;;;8.95;2.50;;;17.10;39.00;;;;;;5011371;28;20533;-80
2022/10/02 09:36:23;;;;;;;10.25;2.90;;;17.20;48.90;;;;;;5028247;28;20207;-80
2022/10/02 09:39:37;;;;;;;11.75;2.50;;;17.20;1.00;;;;;;4999141;28;20210;-80
2022/10/02 09:42:39;;;;;;;14.40;2.72;;;17.10;1.00;;;;;;5032335;28;20191;-80
2022/10/02 09:45:39;;;;;;;15.43;3.85;;;17.10;1.00;;;;;;5016047;28;20214;-81
2022/10/02 09:48:44;;;;;;;9.85;2.72;;;17.10;1.00;;;;;;5012053;28;20195;-80
2022/10/02 09:51:41;;;;;;;10.68;3.47;;;17.20;1.00;;;;;;5012655;28;20215;-81
2022/10/02 09:54:49;;;;;;;11.15;2.38;;;17.30;1.00;;;;;;5011774;28;20285;-79
2022/10/02 09:58:05;;;;;;;13.85;2.47;;;17.40;1.00;;;;;;5012786;28;20658;-83
2022/10/02 10:00:57;;;;;;;11.27;2.10;;;17.50;1.00;;;;;;4978366;28;20617;-81
2022/10/02 10:04:07;;;;;;;14.00;2.63;;;17.50;1.00;;;;;;4970372;28;20308;-79
2022/10/02 10:07:00;;;;;;;11.30;2.72;;;17.50;1.00;;;;;;5010756;28;20282;-80
2022/10/02 10:10:10;;;;;;;8.80;2.53;;;17.40;1.00;;;;;;5017828;28;20608;-81
2022/10/02 10:13:31;;;;;;;12.35;3.25;;;17.40;1.00;;;;;;4980333;28;20851;-80
2022/10/02 10:16:28;;;;;;;9.52;2.78;;;17.40;1.00;;;;;;5026651;28;20210;-82
2022/10/02 10:19:44;;;;;;;10.50;2.78;;;17.50;1.00;;;;;;5042465;28;20187;-80
2022/10/02 10:22:30;;;;;;;12.38;2.28;;;17.50;1.00;;;;;;5042559;28;20269;-81
2022/10/02 10:25:49;;;;;;;18.13;3.40;;;17.50;1.00;;;;;;5047487;28;20200;-81
2022/10/02 10:28:58;;;;;;;12.60;2.88;;;17.50;1.00;;;;;;5031617;28;20777;-81
2022/10/02 10:32:08;;;;;;;10.60;2.55;;;17.50;1.00;;;;;;5031804;28;20218;-81
2022/10/02 10:35:22;;;;;;;14.98;2.72;;;17.60;1.00;;;;;;5043936;28;20233;-83
2022/10/02 10:41:30;;;;;;;7.50;2.25;;;17.70;1.00;;;;;;5032149;28;20210;-81
2022/10/02 10:44:20;;;;;;;12.35;2.53;;;17.70;1.00;;;;;;5025727;28;20221;-82
2022/10/02 10:47:19;;;;;;;13.50;2.53;;;17.60;1.00;;;;;;5005612;28;20206;-82
2022/10/02 10:50:09;;;;;;;12.55;2.55;;;17.70;1.00;;;;;;5034756;28;20210;-82
2022/10/02 10:52:56;;;;;;;9.23;2.35;;;17.60;1.00;;;;;;5054517;28;20615;-79
2022/10/02 10:55:40;;;;;;;9.43;2.33;;;17.70;1.00;;;;;;5055203;28;20284;-81
2022/10/02 10:58:20;;;;;;;10.05;2.60;;;17.70;1.00;;;;;;5054118;28;20253;-81
2022/10/02 11:00:57;;;;;;;10.35;2.85;;;17.80;1.00;;;;;;5045288;28;20203;-79
2022/10/02 11:03:50;;;;;;;11.70;2.72;;;18.00;1.00;;;;;;5033895;28;20241;-80
2022/10/02 11:06:49;;;;;;;22.17;12.15;;;18.00;1.00;;;;;;5031779;28;20198;-78
2022/10/02 11:09:46;;;;;;;17.70;12.57;;;18.20;1.00;;;;;;5034707;28;20499;-79
2022/10/02 11:12:40;;;;;;;14.05;3.72;;;18.20;1.00;;;;;;5034358;28;20214;-79
2022/10/02 11:15:23;;;;;;;14.68;3.00;;;18.10;1.00;;;;;;5022345;28;20226;-80
2022/10/02 11:18:13;;;;;;;10.00;3.33;;;18.10;1.00;;;;;;5036508;28;20191;-81
2022/10/02 11:21:25;;;;;;;10.68;3.25;;;18.20;1.00;;;;;;5034770;28;20206;-80
2022/10/02 11:24:18;;;;;;;9.70;2.78;;;18.30;1.00;;;;;;5018863;28;20211;-80
2022/10/02 11:27:04;;;;;;;12.85;2.20;;;18.50;1.00;;;;;;5034419;28;20289;-81
2022/10/02 11:29:58;;;;;;;12.13;2.97;;;18.60;1.00;;;;;;5033890;28;20285;-81
2022/10/02 11:33:01;;;;;;;9.68;2.10;;;18.70;1.00;;;;;;5031074;28;20230;-80
2022/10/02 11:35:58;;;;;;;9.50;2.28;;;18.90;99.90;;;;;;5034206;28;20202;-79
2022/10/02 11:38:54;;;;;;;16.13;3.20;;;19.00;99.90;;;;;;5012953;28;20291;-79
2022/10/02 11:41:59;;;;;;;7.97;2.08;;;19.10;1.00;;;;;;5034605;28;20230;-81
2022/10/02 11:44:45;;;;;;;11.50;2.78;;;19.20;99.90;;;;;;5019674;28;20210;-79
2022/10/02 11:47:33;;;;;;;10.70;2.60;;;19.10;99.90;;;;;;5034622;28;20194;-82
2022/10/02 11:50:40;;;;;;;13.95;5.72;;;19.10;99.90;;;;;;5043660;28;20198;-82
2022/10/02 11:53:28;;;;;;;14.15;6.82;;;19.00;99.90;;;;;;5032859;28;20237;-80
2022/10/02 11:56:13;;;;;;;11.88;4.53;;;19.00;99.90;;;;;;5033967;28;20202;-81
2022/10/02 11:58:54;;;;;;;9.93;3.38;;;19.00;99.90;;;;;;5032618;28;20222;-82
2022/10/02 12:01:30;;;;;;;18.58;9.55;;;19.10;99.90;;;;;;5033496;28;20222;-81
2022/10/02 12:04:12;;;;;;;10.75;2.83;;;19.10;99.90;;;;;;5033943;28;20237;-78
2022/10/02 12:06:59;;;;;;;10.35;3.25;;;19.20;99.90;;;;;;5032812;28;20206;-80
2022/10/02 12:09:39;;;;;;;8.75;2.80;;;19.30;99.90;;;;;;5046289;28;20210;-81
2022/10/02 12:12:23;;;;;;;14.55;5.32;;;19.30;99.90;;;;;;5053590;28;20625;-82
2022/10/02 12:14:58;;;;;;;12.35;2.63;;;19.30;99.90;;;;;;5041104;28;20202;-82
2022/10/02 12:17:54;;;;;;;12.40;2.67;;;19.30;99.90;;;;;;5043343;28;20210;-81
2022/10/02 12:29:28;;;;;;;12.00;2.90;;;19.10;99.90;;;;;;5042995;28;20608;-81
2022/10/02 12:32:06;;;;;;;10.63;2.97;;;19.00;99.90;;;;;;5043640;28;20218;-82
2022/10/02 12:34:48;;;;;;;12.63;3.38;;;19.10;99.90;;;;;;5043810;28;20197;-81
2022/10/02 12:37:22;;;;;;;15.52;2.88;;;19.00;99.90;;;;;;5051926;28;20186;-81
2022/10/02 12:39:58;;;;;;;11.05;2.90;;;19.00;99.90;;;;;;5044767;28;20190;-80
2022/10/02 12:42:51;;;;;;;12.93;2.83;;;18.90;99.90;;;;;;5032130;28;20206;-80
2022/10/02 12:45:44;;;;;;;10.38;2.90;;;19.00;99.90;;;;;;5032948;28;20207;-81
2022/10/02 12:48:23;;;;;;;11.57;3.55;;;18.90;99.90;;;;;;5005107;28;20203;-80
2022/10/02 12:51:04;;;;;;;11.40;4.20;;;18.80;99.90;;;;;;5032518;28;20265;-81
2022/10/02 12:54:03;;;;;;;11.65;2.78;;;18.80;99.90;;;;;;5032615;28;20229;-80
2022/10/02 12:57:09;;;;;;;18.08;9.68;;;18.70;99.90;;;;;;5032023;28;20210;-80
2022/10/02 12:59:48;;;;;;;41.97;19.10;;;18.70;99.90;;;;;;5021725;28;20220;-83
2022/10/02 13:02:49;;;;;;;21.55;10.93;;;18.70;99.90;;;;;;5032758;28;20197;-80
2022/10/02 13:05:45;;;;;;;14.60;8.95;;;18.70;99.90;;;;;;5032559;28;20228;-81
2022/10/02 13:08:51;;;;;;;12.50;3.75;;;18.70;99.90;;;;;;5032746;28;20601;-81
2022/10/02 13:11:28;;;;;;;7.90;2.60;;;18.70;99.90;;;;;;5004613;28;20198;-80
2022/10/02 13:14:08;;;;;;;7.60;2.30;;;18.70;99.90;;;;;;5032463;28;20236;-81
2022/10/02 13:16:57;;;;;;;6.90;2.10;;;18.70;99.90;;;;;;5032378;28;20778;-81
2022/10/02 13:19:33;;;;;;;10.38;2.75;;;18.60;99.90;;;;;;5051894;28;20448;-79
2022/10/02 13:22:09;;;;;;;9.68;2.75;;;18.60;99.90;;;;;;5034736;28;20201;-80
2022/10/02 13:24:53;;;;;;;7.55;2.63;;;18.60;99.90;;;;;;5051164;28;20194;-79
2022/10/02 13:27:29;;;;;;;11.10;3.45;;;18.70;99.90;;;;;;5032895;28;20193;-81
2022/10/02 13:30:06;;;;;;;12.18;2.78;;;18.60;99.90;;;;;;5032756;28;20198;-80
2022/10/02 13:33:07;;;;;;;10.05;2.97;;;18.60;99.90;;;;;;5031481;28;20222;-80
2022/10/02 13:36:03;;;;;;;9.32;2.30;;;18.50;99.90;;;;;;5032776;28;20202;-81
2022/10/02 13:38:59;;;;;;;10.50;2.55;;;18.40;99.90;;;;;;5027052;28;20209;-80
2022/10/02 13:41:39;;;;;;;10.48;3.38;;;18.40;99.90;;;;;;5032654;28;20207;-81
2022/10/02 13:44:15;;;;;;;8.75;2.45;;;18.40;99.90;;;;;;5032333;28;20240;-81
2022/10/02 13:47:07;;;;;;;8.50;2.40;;;18.50;99.90;;;;;;5032461;28;20201;-82
2022/10/02 13:49:50;;;;;;;16.23;3.13;;;18.50;99.90;;;;;;5032266;28;20638;-82
2022/10/02 13:52:27;;;;;;;11.10;2.55;;;18.60;99.90;;;;;;5031742;28;20221;-81
2022/10/02 13:55:08;;;;;;;14.82;7.93;;;18.60;99.90;;;;;;5031988;28;20206;-79
2022/10/02 13:57:48;;;;;;;12.77;5.30;;;18.50;99.90;;;;;;5032147;28;20343;-80
2022/10/02 14:00:23;;;;;;;16.23;6.55;;;18.50;99.90;;;;;;5031771;28;20198;-81
2022/10/02 14:03:04;;;;;;;11.25;3.03;;;18.50;99.90;;;;;;5032083;28;20234;-81
2022/10/02 14:05:41;;;;;;;10.80;3.35;;;18.50;99.90;;;;;;5032404;28;20220;-80
2022/10/02 14:08:26;;;;;;;8.68;2.88;;;18.40;99.90;;;;;;5030866;28;20260;-78